Airfield :
LOGIN :

Register | Disclaimer

   EN    FR    IT 

 










Legend :    VFR   Marginal VFR   IFR   Intensive IFR   Very Intensive IFR
Visi :
Ceiling :
>= 8 km
>= 3000ft
5 to 8 km
1000 to 3000 ft
1500m to 5 km
500 to 1000 ft
800 to 1500m
200 to 500 ft
< 800m
< 200 ft
Symbols :   Thunderstorms  Fog  Heavy snow  Heavy precipitations  Wind > 20 kt
SIGMETs :     Misc.  Thunderstorms  Icing  Turbulence  Mountain Waves  Volcanic Ashes






- Airport Elevation : 935 ft


EBFS - Florennes

CURRENT METAR :
  • 220125Z AUTO 03011KT 9999 BKN210/// 03/00 Q1021 BLU

EXPIRED METARs :
  • 220055Z AUTO 03009KT 9999 BKN210/// 04/01 Q1021 BLU
  • 220025Z AUTO 03010KT 9999 BKN210/// 04/01 Q1021 BLU
  • 212355Z AUTO 02007KT 9999 BKN210/// 04/01 Q1021 BLU
  • 212325Z AUTO 03007KT 9999 FEW130/// BKN220/// 04/01 Q1021 BLU
  • 212255Z AUTO 03009KT 9999 FEW120/// BKN220/// 05/01 Q1021 BLU

TAF TAF EBFS
Valid from the 21 at 19:00 until the 22 at 07:00 UTC


211541Z 2119/2207 02005KT 9999 SCT025 SCT050
TEMPO 2119/2207 02010G20KT 6000 SCT015
PROB40
TEMPO 2122/2207 4000 BR FEW015
PROB30
TEMPO 2203/2207 1000 BR SCT002
BECMG 2205/2207 05010KT



MET'MAP, your aeronautical weather chart ! - Copyright ORBIFLY December 2007 - Disclaimer

ORBIFLY MET'MAP TEAM :

Programming & Development : Alexandra Zaïnal
Concept & original design : Baudouin d'Aumeries
Assistance for programming : Marc-Olivier Méhu
Technical & hardware support : Manuel Goepfert

Contact : metmap@orbifly.com




SOURCES & CREDITS :

   NOAA